Andale, KS

2:27 PM CST on January 26, 2015 (GMT -0600)
hamill shop | Change Station
CLOSE
Current Station
Personal Weather Station
Location: Mount Hope, KS
Elevation: 1470 ft
Nearby Weather Stations

Elev 1470 ft 37.85 °N, 97.68 °W | Updated 2 minutes ago

Clear
Clear
69.9 °F
Feels Like 69.9 °F
N
11.0
Wind Variable Wind from West
Gusts 14.0 mph

Today
High -- | Low -- °F
--% Chance of Precip.
Yesterday
High -- | Low -- °F
Precip. -- in
7:39 AM 5:47 PM
Waxing Crescent, 46% visible
Pressure 29.99 in
Visibility 10.0 miles
Clouds Clear
Dew Point 37 °F
Humidity 30%
Rainfall 0.00 in
Snow Depth Not available.
UV 3 out of 12
Pollen 1.90 out of 12
Air Quality Not available.
Flu Activity Not available.
METAR KICT 261953Z 33014KT 10SM CLR 22/02 A2998 RMK AO2 SLP153 T02220017

More Conditions Fewer Conditions

Pressure 29.99 in
Visibility 10.0 miles
Clouds Clear
Dew Point 37 °F
Humidity 30%
Rainfall 0.00 in
Snow Depth Not available.
UV 3 out of 12
Pollen 1.90 out of 12
Air Quality Not available.
Flu Activity Not available.
METAR KICT 261953Z 33014KT 10SM CLR 22/02 A2998 RMK AO2 SLP153 T02220017

More Conditions Fewer Conditions

10-Day Weather Forecast

Almanac

Astronomy

Jan. 26, 2015 Rise Set
Actual Time
Civil Twilight
Nautical Twilight
Astronomical Twilight
Moon
Length of Visible Light
Length of Day
Tomorrow will be .
, % of the Moon is Illuminated

Today's Extremes

State Highs State Lows

Community

WunderPhotos

Upload Photos

1,790,350 photos uploaded!

WunderBlogs® & News

Nearby

Air Quality

  Air Quality AQ Index Pollutant
Not available.

Snow Depth

Station Depth Elevation

Earthquake Activity

City Distance Mag. Time & Date
Minimum magnitude displayed is 2.5.

Coastal Water Temperatures

Place Temperature

Nearby Weather Stations